This is the latest recevied weather packets stored in our database for station/object IONIA-WX. If no packets are shown the sender has not sent any weather packets the latest 1 day(s).
| Time | Temp. | Humidity | Pressure | Rain* | Wind** | Luminosity | Snow |
|---|---|---|---|---|---|---|---|
| 1778009434 | 12.78° C | 35% | 978.6 hPa | 0 mm | 7.15 m/s, 264° | - | - |
| 1778008520 | 12.78° C | 35% | 978.6 hPa | 0 mm | 7.15 m/s, 262° | - | - |
| 1778007640 | 13.33° C | 35% | 978.6 hPa | 0 mm | 7.15 m/s, 263° | - | - |
| 1778006720 | 13.33° C | 37% | 979 hPa | 0 mm | 7.15 m/s, 265° | - | - |
| 1778005841 | 13.33° C | 36% | 978.5 hPa | 0 mm | 7.15 m/s, 265° | - | - |
| 1778004920 | 13.33° C | 36% | 978.5 hPa | 0 mm | 7.15 m/s, 263° | - | - |
| 1778004045 | 13.33° C | 36% | 978.5 hPa | 0 mm | 6.71 m/s, 267° | - | - |
| 1778003119 | 12.78° C | 39% | 978 hPa | 0 mm | 6.71 m/s, 268° | - | - |
| 1778002234 | 13.33° C | 35% | 977.4 hPa | 0 mm | 6.71 m/s, 267° | - | - |
| 1778001320 | 12.78° C | 35% | 977.4 hPa | 0 mm | 6.26 m/s, 267° | - | - |
| 1778000442 | 12.78° C | 35% | 977.4 hPa | 0 mm | 6.26 m/s, 266° | - | - |
| 1777999520 | 12.22° C | 41% | 977.5 hPa | 0 mm | 6.71 m/s, 268° | - | - |
| 1777998638 | 12.78° C | 38% | 976.3 hPa | 0 mm | 6.71 m/s, 267° | - | - |
| 1777997720 | 12.22° C | 38% | 976.3 hPa | 0 mm | 6.26 m/s, 266° | - | - |
| 1777996846 | 12.22° C | 38% | 976.3 hPa | 0 mm | 6.26 m/s, 269° | - | - |
| 1777995917 | 11.67° C | 49% | 977.7 hPa | 0 mm | 6.71 m/s, 264° | - | - |
| 1777995040 | 12.22° C | 46% | 976.7 hPa | 0 mm | 7.15 m/s, 265° | - | - |
| 1777994120 | 12.22° C | 46% | 976.7 hPa | 0 mm | 6.71 m/s, 265° | - | - |
| 1777993248 | 11.67° C | 46% | 976.7 hPa | 0 mm | 6.26 m/s, 266° | - | - |
| 1777992320 | 10.56° C | 52% | 976.9 hPa | 0 mm | 5.81 m/s, 271° | - | - |
| 1777991437 | 11.11° C | 49% | 976.7 hPa | 0 mm | 5.81 m/s, 268° | - | - |
| 1777990519 | 11.67° C | 49% | 976.7 hPa | 0 mm | 4.92 m/s, 266° | - | - |
| 1777989649 | 11.11° C | 49% | 976.7 hPa | 0 mm | 4.92 m/s, 271° | - | - |
| 1777988719 | 11.11° C | 46% | 976.4 hPa | 0 mm | 5.81 m/s, 277° | - | - |
| 1777987839 | 11.11° C | 46% | 976.4 hPa | 0 mm | 5.36 m/s, 278° | - | - |
* Rain latest hour (hover to see other rain measurements)
** Current wind speed in m/s (hover to see current wind gust speed)